Time;durP1;ratioP1;P1;durP2;ratioP2;P2;SDS_P1;SDS_P2;PMS_P1;PMS_P2;Temp;Humidity;BMP_temperature;BMP_pressure;BME280_temperature;BME280_humidity;BME280_pressure;Samples;Min_cycle;Max_cycle;Signal;HPM_P1;HPM_P2
2024/01/09 00:01:28;;;;;;;;;;;-0.50;99.20;;;;;;5024222;28;20204;-65
2024/01/09 00:03:53;;;;;;;;;;;-0.50;99.00;;;;;;5032375;28;19913;-65
2024/01/09 00:06:19;;;;;;;;;;;-0.50;99.00;;;;;;5032627;28;19913;-65
2024/01/09 00:08:45;;;;;;;;;;;-0.50;99.00;;;;;;5025159;28;19966;-65
2024/01/09 00:11:14;;;;;;;;;;;-0.50;99.00;;;;;;5031228;28;19913;-65
2024/01/09 00:13:40;;;;;;;;;;;-0.50;98.90;;;;;;5032646;28;19916;-65
2024/01/09 00:16:06;;;;;;;;;;;-0.50;99.00;;;;;;5037792;28;19917;-65
2024/01/09 00:18:31;;;;;;;;;;;-0.50;99.00;;;;;;5024170;28;19913;-65
2024/01/09 00:20:57;;;;;;;;;;;-0.50;99.00;;;;;;5015879;28;19940;-65
2024/01/09 00:23:22;;;;;;;;;;;-0.50;99.00;;;;;;5029556;28;20346;-65
2024/01/09 00:25:48;;;;;;;;;;;-0.50;99.00;;;;;;5041693;28;19909;-65
2024/01/09 00:28:13;;;;;;;;;;;-0.50;99.00;;;;;;5038781;28;19920;-65
2024/01/09 00:30:39;;;;;;;;;;;-0.60;98.90;;;;;;5023589;28;19985;-65
2024/01/09 00:33:04;;;;;;;;;;;-0.60;99.00;;;;;;5039906;28;19956;-65
2024/01/09 00:35:30;;;;;;;;;;;-0.60;99.00;;;;;;5038963;28;19923;-65
2024/01/09 00:37:55;;;;;;;;;;;-0.60;98.90;;;;;;5006504;28;20020;-65
2024/01/09 00:40:21;;;;;;;;;;;-0.60;98.80;;;;;;5029919;28;20418;-65
2024/01/09 00:42:47;;;;;;;;;;;-0.60;98.90;;;;;;5034789;28;20359;-65
2024/01/09 00:45:12;;;;;;;;;;;-0.60;98.90;;;;;;5030705;28;19938;-65
2024/01/09 00:47:38;;;;;;;;;;;-0.60;98.70;;;;;;5023460;28;20460;-65
2024/01/09 00:50:04;;;;;;;;;;;-0.70;98.90;;;;;;5035466;28;20364;-65
2024/01/09 00:52:29;;;;;;;;;;;-0.70;99.00;;;;;;5030441;28;19912;-65
2024/01/09 00:54:55;;;;;;;;;;;-0.70;98.80;;;;;;5024279;28;19955;-65
2024/01/09 00:57:20;;;;;;;;;;;-0.70;99.10;;;;;;5031688;28;19916;-65
2024/01/09 00:59:46;;;;;;;;;;;-0.70;99.10;;;;;;5039459;28;19929;-65
2024/01/09 01:02:11;;;;;;;;;;;-0.70;99.10;;;;;;5027963;28;20276;-65
2024/01/09 01:04:38;;;;;;;;;;;-0.70;99.10;;;;;;5035043;28;19923;-65
2024/01/09 01:07:03;;;;;;;;;;;-0.70;98.90;;;;;;5014997;28;20255;-65
2024/01/09 01:09:29;;;;;;;;;;;-0.70;98.90;;;;;;5037750;28;19912;-65
2024/01/09 01:11:54;;;;;;;;;;;-0.70;98.80;;;;;;5040083;28;19966;-65
2024/01/09 01:14:20;;;;;;;;;;;-0.70;98.80;;;;;;5010683;28;19913;-65
2024/01/09 01:16:46;;;;;;;;;;;-0.70;99.00;;;;;;5013816;28;19999;-65
2024/01/09 01:19:11;;;;;;;;;;;-0.70;98.90;;;;;;5030254;28;20691;-65
2024/01/09 01:21:37;;;;;;;;;;;-0.70;98.80;;;;;;5030997;28;19914;-65
2024/01/09 01:24:02;;;;;;;;;;;-0.70;98.80;;;;;;5034290;28;20357;-65
2024/01/09 01:26:29;;;;;;;;;;;-0.70;98.80;;;;;;5028687;28;20000;-65
2024/01/09 01:28:55;;;;;;;;;;;-0.70;98.80;;;;;;5022482;28;20527;-65
2024/01/09 01:31:20;;;;;;;;;;;-0.70;98.70;;;;;;5023327;28;19917;-65
2024/01/09 01:33:46;;;;;;;;;;;-0.70;98.70;;;;;;5012899;28;20265;-65
2024/01/09 01:36:12;;;;;;;;;;;-0.70;98.70;;;;;;5027263;28;20625;-65
2024/01/09 01:38:38;;;;;;;;;;;-0.70;98.70;;;;;;5034342;28;20369;-65
2024/01/09 01:41:03;;;;;;;;;;;-0.70;98.70;;;;;;5022932;28;19966;-65
2024/01/09 01:43:29;;;;;;;;;;;-0.70;98.70;;;;;;5022497;28;19913;-65
2024/01/09 01:45:54;;;;;;;;;;;-0.70;98.70;;;;;;5011201;28;19913;-65
2024/01/09 01:48:20;;;;;;;;;;;-0.70;98.60;;;;;;5021947;28;19913;-65
2024/01/09 01:50:46;;;;;;;;;;;-0.70;98.60;;;;;;5026209;28;19913;-65
2024/01/09 01:53:11;;;;;;;;;;;-0.70;98.40;;;;;;5027144;28;20365;-65
2024/01/09 01:55:37;;;;;;;;;;;-0.80;98.50;;;;;;5008250;28;19917;-65
2024/01/09 01:58:02;;;;;;;;;;;-0.80;98.60;;;;;;5033598;28;19912;-65
2024/01/09 02:00:28;;;;;;;;;;;-0.80;98.50;;;;;;5026967;28;19921;-65
2024/01/09 02:02:54;;;;;;;;;;;-0.80;98.50;;;;;;5038225;28;20321;-65
2024/01/09 02:05:24;;;;;;;;;;;-0.80;98.40;;;;;;5022288;28;20048;-65
2024/01/09 02:07:53;;;;;;;;;;;-0.80;98.50;;;;;;5011794;28;20333;-65
2024/01/09 02:10:22;;;;;;;;;;;-0.80;98.40;;;;;;5028321;28;19918;-65
2024/01/09 02:12:47;;;;;;;;;;;-0.80;98.30;;;;;;5021838;28;20452;-65
2024/01/09 02:15:13;;;;;;;;;;;-0.80;98.30;;;;;;5030421;28;19988;-65
2024/01/09 02:17:39;;;;;;;;;;;-0.80;98.40;;;;;;5022228;28;19919;-65
2024/01/09 02:20:05;;;;;;;;;;;-0.80;98.30;;;;;;5014361;28;19913;-65
2024/01/09 02:22:31;;;;;;;;;;;-0.80;98.40;;;;;;5029998;28;19986;-65
2024/01/09 02:24:56;;;;;;;;;;;-0.80;98.40;;;;;;5038026;28;19913;-65
2024/01/09 02:27:37;;;;;;;;;;;-0.80;98.40;;;;;;5029899;28;19913;-65
2024/01/09 02:30:03;;;;;;;;;;;-0.80;98.30;;;;;;5021332;28;19973;-65
2024/01/09 02:32:29;;;;;;;;;;;-0.80;98.40;;;;;;5029482;28;19913;-65
2024/01/09 02:34:54;;;;;;;;;;;-0.80;98.40;;;;;;5023599;28;19920;-66
2024/01/09 02:37:20;;;;;;;;;;;-0.80;98.40;;;;;;5035850;28;19917;-65
2024/01/09 02:39:45;;;;;;;;;;;-0.80;98.40;;;;;;5029563;28;20407;-65
2024/01/09 02:42:12;;;;;;;;;;;-0.80;98.40;;;;;;5034391;28;20325;-65
2024/01/09 02:44:38;;;;;;;;;;;-0.90;98.40;;;;;;5033245;28;19997;-65
2024/01/09 02:47:04;;;;;;;;;;;-0.90;98.40;;;;;;5021434;28;19913;-65
2024/01/09 02:49:29;;;;;;;;;;;-0.90;98.40;;;;;;5022929;28;20332;-65
2024/01/09 02:51:55;;;;;;;;;;;-0.90;98.40;;;;;;5019927;28;19913;-65
2024/01/09 02:54:20;;;;;;;;;;;-0.90;98.40;;;;;;5021733;28;19928;-65
2024/01/09 02:56:45;;;;;;;;;;;-0.90;98.40;;;;;;5029551;28;19952;-65
2024/01/09 02:59:11;;;;;;;;;;;-0.90;98.30;;;;;;5007542;28;19913;-65
2024/01/09 03:01:36;;;;;;;;;;;-0.90;98.30;;;;;;5032822;28;20338;-65
2024/01/09 03:04:02;;;;;;;;;;;-0.90;98.30;;;;;;5033308;28;19916;-65
2024/01/09 03:06:27;;;;;;;;;;;-0.90;98.20;;;;;;5040185;28;19915;-65
2024/01/09 03:08:53;;;;;;;;;;;-0.90;98.40;;;;;;5026357;28;19940;-65
2024/01/09 03:11:19;;;;;;;;;;;-0.90;98.40;;;;;;5030315;28;19969;-65
2024/01/09 03:13:44;;;;;;;;;;;-0.90;98.10;;;;;;5027343;28;19915;-65
2024/01/09 03:16:11;;;;;;;;;;;-1.00;98.20;;;;;;5024937;28;19917;-65
2024/01/09 03:18:36;;;;;;;;;;;-1.00;98.30;;;;;;5015151;28;19913;-65
2024/01/09 03:21:02;;;;;;;;;;;-0.90;98.30;;;;;;5024403;28;20376;-65
2024/01/09 03:23:27;;;;;;;;;;;-0.90;98.30;;;;;;5031374;28;19933;-65
2024/01/09 03:25:53;;;;;;;;;;;-1.00;98.20;;;;;;5024588;28;20020;-65
2024/01/09 03:28:18;;;;;;;;;;;-1.00;98.30;;;;;;5031166;28;20528;-65
2024/01/09 03:30:44;;;;;;;;;;;-0.90;98.30;;;;;;5016329;28;19921;-65
2024/01/09 03:33:09;;;;;;;;;;;-1.00;98.20;;;;;;5026032;28;19912;-65
2024/01/09 03:35:35;;;;;;;;;;;-1.00;98.30;;;;;;5039783;27;19924;-65
2024/01/09 03:38:00;;;;;;;;;;;-0.90;98.30;;;;;;5032607;28;19987;-65
2024/01/09 03:40:26;;;;;;;;;;;-1.00;98.20;;;;;;5024626;28;20416;-65
2024/01/09 03:42:51;;;;;;;;;;;-1.00;98.20;;;;;;5024012;28;19917;-65
2024/01/09 03:45:17;;;;;;;;;;;-1.00;98.20;;;;;;5024346;28;19909;-65
2024/01/09 03:47:42;;;;;;;;;;;-1.00;98.20;;;;;;5040663;28;19968;-65
2024/01/09 03:50:08;;;;;;;;;;;-1.00;98.20;;;;;;5017420;28;20726;-65
2024/01/09 03:52:33;;;;;;;;;;;-1.00;98.20;;;;;;5023579;28;19924;-65
2024/01/09 03:54:59;;;;;;;;;;;-1.00;98.20;;;;;;5031815;28;19909;-65
2024/01/09 03:57:25;;;;;;;;;;;-1.00;98.10;;;;;;5023548;28;19942;-65
2024/01/09 03:59:50;;;;;;;;;;;-1.00;98.10;;;;;;5022933;28;19965;-65
2024/01/09 04:02:16;;;;;;;;;;;-1.10;97.90;;;;;;5031541;28;20446;-65
2024/01/09 04:04:41;;;;;;;;;;;-1.10;98.20;;;;;;5039349;28;19913;-65
2024/01/09 04:07:07;;;;;;;;;;;-1.00;98.20;;;;;;5023284;28;19920;-65
2024/01/09 04:09:32;;;;;;;;;;;-1.00;98.20;;;;;;5029689;28;20040;-65
2024/01/09 04:11:58;;;;;;;;;;;-1.10;98.10;;;;;;5032403;28;20335;-65
2024/01/09 04:14:23;;;;;;;;;;;-1.00;98.20;;;;;;5031680;28;20038;-65
2024/01/09 04:16:49;;;;;;;;;;;-1.10;98.20;;;;;;5032553;28;19944;-65
2024/01/09 04:19:14;;;;;;;;;;;-1.10;98.10;;;;;;5035328;28;20024;-65
2024/01/09 04:21:40;;;;;;;;;;;-1.10;98.10;;;;;;5027089;28;20522;-65
2024/01/09 04:24:05;;;;;;;;;;;-1.10;98.10;;;;;;5031464;28;20004;-65
2024/01/09 04:26:31;;;;;;;;;;;-1.10;98.10;;;;;;5039070;27;20009;-65
2024/01/09 04:28:57;;;;;;;;;;;-1.10;98.10;;;;;;5023347;28;19917;-65
2024/01/09 04:31:25;;;;;;;;;;;-1.10;98.00;;;;;;5023396;28;19921;-65
2024/01/09 04:33:50;;;;;;;;;;;-1.10;98.00;;;;;;5040840;28;20065;-65
2024/01/09 04:36:17;;;;;;;;;;;-1.10;98.00;;;;;;5043379;28;20045;-65
2024/01/09 04:38:42;;;;;;;;;;;-1.10;98.10;;;;;;5026337;28;19975;-65
2024/01/09 04:41:08;;;;;;;;;;;-1.10;98.00;;;;;;5014173;28;20431;-65
2024/01/09 04:43:33;;;;;;;;;;;-1.10;98.10;;;;;;5023734;28;20018;-65
2024/01/09 04:45:59;;;;;;;;;;;-1.10;98.10;;;;;;5023268;28;19919;-65
2024/01/09 04:48:24;;;;;;;;;;;-1.10;98.10;;;;;;5023515;28;20242;-65
2024/01/09 04:50:50;;;;;;;;;;;-1.10;98.10;;;;;;5033464;28;19941;-65
2024/01/09 04:53:15;;;;;;;;;;;-1.10;98.10;;;;;;5023704;28;19913;-65
2024/01/09 04:55:41;;;;;;;;;;;-1.10;98.10;;;;;;5023359;28;20323;-65
2024/01/09 04:58:06;;;;;;;;;;;-1.10;98.00;;;;;;5031582;28;19924;-65
2024/01/09 05:00:32;;;;;;;;;;;-1.10;98.00;;;;;;5023343;28;19944;-65
2024/01/09 05:02:57;;;;;;;;;;;-1.10;98.00;;;;;;5022894;28;20014;-65
2024/01/09 05:05:23;;;;;;;;;;;-1.20;98.00;;;;;;5023483;28;19913;-65
2024/01/09 05:07:48;;;;;;;;;;;-1.10;98.00;;;;;;5023122;28;20337;-65
2024/01/09 05:10:14;;;;;;;;;;;-1.10;98.00;;;;;;5023304;28;19970;-65
2024/01/09 05:12:39;;;;;;;;;;;-1.20;98.00;;;;;;5023381;28;20051;-65
2024/01/09 05:15:05;;;;;;;;;;;-1.10;98.00;;;;;;5023121;28;19973;-65
2024/01/09 05:17:30;;;;;;;;;;;-1.20;98.00;;;;;;5008701;28;19924;-65
2024/01/09 05:19:56;;;;;;;;;;;-1.20;98.00;;;;;;5023997;28;20421;-65
2024/01/09 05:22:21;;;;;;;;;;;-1.20;97.90;;;;;;5021649;28;19919;-65
2024/01/09 05:24:47;;;;;;;;;;;-1.20;97.90;;;;;;5004705;28;19921;-65
2024/01/09 05:27:12;;;;;;;;;;;-1.20;97.90;;;;;;5023159;28;19956;-65
2024/01/09 05:29:38;;;;;;;;;;;-1.20;97.90;;;;;;5022889;28;20023;-65
2024/01/09 05:32:04;;;;;;;;;;;-1.20;97.90;;;;;;5022241;28;19913;-65
2024/01/09 05:34:30;;;;;;;;;;;-1.20;97.90;;;;;;5022683;28;19924;-65
2024/01/09 05:36:55;;;;;;;;;;;-1.20;97.90;;;;;;5022055;28;19928;-65
2024/01/09 05:39:21;;;;;;;;;;;-1.20;97.90;;;;;;5022822;28;19913;-65
2024/01/09 05:41:46;;;;;;;;;;;-1.20;98.10;;;;;;5022303;28;19912;-65
2024/01/09 05:44:12;;;;;;;;;;;-1.20;97.80;;;;;;5030964;28;20053;-65
2024/01/09 05:46:37;;;;;;;;;;;-1.30;97.80;;;;;;5022477;28;19913;-65
2024/01/09 05:49:03;;;;;;;;;;;-1.30;97.90;;;;;;5030156;28;19967;-65
2024/01/09 05:51:29;;;;;;;;;;;-1.30;97.80;;;;;;5028569;28;20415;-65
2024/01/09 05:53:54;;;;;;;;;;;-1.20;97.80;;;;;;5023876;28;19920;-65
2024/01/09 05:56:20;;;;;;;;;;;-1.20;97.90;;;;;;5022620;28;19981;-65
2024/01/09 05:58:45;;;;;;;;;;;-1.30;97.80;;;;;;5022227;28;19913;-65
2024/01/09 06:01:11;;;;;;;;;;;-1.30;97.90;;;;;;5022219;28;19913;-65
2024/01/09 06:03:36;;;;;;;;;;;-1.30;97.80;;;;;;5022127;28;19909;-65
2024/01/09 06:06:02;;;;;;;;;;;-1.30;97.80;;;;;;5022195;28;19970;-65
2024/01/09 06:08:27;;;;;;;;;;;-1.30;97.80;;;;;;5022208;28;19955;-65
2024/01/09 06:10:53;;;;;;;;;;;-1.30;97.80;;;;;;5021438;28;20306;-65
2024/01/09 06:13:18;;;;;;;;;;;-1.30;97.80;;;;;;5021930;28;19913;-65
2024/01/09 06:15:44;;;;;;;;;;;-1.30;97.80;;;;;;5021039;28;20007;-65
2024/01/09 06:18:09;;;;;;;;;;;-1.30;97.80;;;;;;5022068;28;20584;-65
2024/01/09 06:20:35;;;;;;;;;;;-1.30;97.80;;;;;;5011822;28;19926;-65
2024/01/09 06:23:01;;;;;;;;;;;-1.30;97.80;;;;;;5021081;28;19913;-65
2024/01/09 06:25:26;;;;;;;;;;;-1.30;97.80;;;;;;5022229;28;19913;-65
2024/01/09 06:27:52;;;;;;;;;;;-1.30;97.80;;;;;;5021863;28;19931;-65
2024/01/09 06:30:17;;;;;;;;;;;-1.30;97.80;;;;;;5021761;28;19955;-65
2024/01/09 06:32:43;;;;;;;;;;;-1.40;97.80;;;;;;5021503;28;20386;-65
2024/01/09 06:35:08;;;;;;;;;;;-1.40;97.80;;;;;;5022224;28;19914;-65
2024/01/09 06:37:34;;;;;;;;;;;-1.40;97.80;;;;;;5021765;28;19963;-65
2024/01/09 06:39:59;;;;;;;;;;;-1.40;97.80;;;;;;5029946;28;20020;-65
2024/01/09 06:42:25;;;;;;;;;;;-1.40;97.80;;;;;;5022063;28;19913;-65
2024/01/09 06:44:50;;;;;;;;;;;-1.40;97.80;;;;;;5021921;28;19913;-65
2024/01/09 06:47:16;;;;;;;;;;;-1.40;97.80;;;;;;5022127;28;19919;-65
2024/01/09 06:49:42;;;;;;;;;;;-1.40;97.70;;;;;;5017529;28;19914;-65
2024/01/09 06:52:07;;;;;;;;;;;-1.40;97.70;;;;;;5021429;28;19917;-62
2024/01/09 06:54:33;;;;;;;;;;;-1.40;97.70;;;;;;5021930;28;20004;-62
2024/01/09 06:56:59;;;;;;;;;;;-1.40;97.70;;;;;;5029994;28;19917;-62
2024/01/09 06:59:24;;;;;;;;;;;-1.40;97.70;;;;;;5027544;28;20514;-62
2024/01/09 07:01:50;;;;;;;;;;;-1.40;97.70;;;;;;5039973;28;19912;-62
2024/01/09 07:04:15;;;;;;;;;;;-1.40;97.80;;;;;;5037246;27;19935;-62
2024/01/09 07:06:41;;;;;;;;;;;-1.40;97.70;;;;;;5029881;28;20003;-62
2024/01/09 07:09:07;;;;;;;;;;;-1.40;97.70;;;;;;5021423;28;20334;-62
2024/01/09 07:11:33;;;;;;;;;;;-1.40;97.70;;;;;;5003419;28;19928;-62
2024/01/09 07:13:58;;;;;;;;;;;-1.40;97.80;;;;;;5021183;28;20636;-62
2024/01/09 07:16:24;;;;;;;;;;;-1.40;97.70;;;;;;5037514;28;19924;-62
2024/01/09 07:18:49;;;;;;;;;;;-1.40;97.70;;;;;;5023479;28;19939;-62
2024/01/09 07:21:15;;;;;;;;;;;-1.40;97.70;;;;;;5021382;28;20638;-62
2024/01/09 07:23:40;;;;;;;;;;;-1.40;97.70;;;;;;5036481;28;20040;-62
2024/01/09 07:26:06;;;;;;;;;;;-1.40;97.60;;;;;;5008581;28;19913;-62
2024/01/09 07:28:31;;;;;;;;;;;-1.50;97.60;;;;;;5036305;27;19913;-62
2024/01/09 07:30:57;;;;;;;;;;;-1.50;97.60;;;;;;5036928;28;19996;-62
2024/01/09 07:33:22;;;;;;;;;;;-1.50;97.60;;;;;;5021253;28;19957;-62
2024/01/09 07:35:48;;;;;;;;;;;-1.40;97.60;;;;;;5021277;28;19913;-62
2024/01/09 07:38:13;;;;;;;;;;;-1.50;97.60;;;;;;5021543;28;19913;-62
2024/01/09 07:40:39;;;;;;;;;;;-1.50;97.60;;;;;;5021317;28;20584;-62
2024/01/09 07:43:04;;;;;;;;;;;-1.50;97.60;;;;;;5020755;28;19956;-62
2024/01/09 07:45:30;;;;;;;;;;;-1.50;97.60;;;;;;5022729;28;19945;-62
2024/01/09 07:47:55;;;;;;;;;;;-1.50;97.60;;;;;;5024414;28;19913;-62
2024/01/09 07:50:21;;;;;;;;;;;-1.50;97.60;;;;;;5019509;28;20005;-62
2024/01/09 07:52:47;;;;;;;;;;;-1.50;97.50;;;;;;5006453;28;19910;-62
2024/01/09 07:55:12;;;;;;;;;;;-1.50;97.50;;;;;;5024598;28;19921;-62
2024/01/09 07:57:38;;;;;;;;;;;-1.50;97.50;;;;;;5024338;28;19958;-62
2024/01/09 08:00:04;;;;;;;;;;;-1.50;97.50;;;;;;5038887;28;19925;-62
2024/01/09 08:02:30;;;;;;;;;;;-1.50;97.50;;;;;;5024350;28;19913;-62
2024/01/09 08:04:55;;;;;;;;;;;-1.50;97.50;;;;;;5025652;28;19989;-62
2024/01/09 08:07:21;;;;;;;;;;;-1.50;97.50;;;;;;5030508;28;19913;-62
2024/01/09 08:09:46;;;;;;;;;;;-1.40;97.50;;;;;;5023743;28;19920;-62
2024/01/09 08:12:12;;;;;;;;;;;-1.50;97.50;;;;;;5024106;28;19913;-62
2024/01/09 08:14:37;;;;;;;;;;;-1.50;97.50;;;;;;5024043;28;19917;-62
2024/01/09 08:17:03;;;;;;;;;;;-1.50;97.40;;;;;;5023386;28;19989;-62
2024/01/09 08:19:29;;;;;;;;;;;-1.50;97.40;;;;;;5031601;28;19989;-62
2024/01/09 08:21:55;;;;;;;;;;;-1.50;97.50;;;;;;5022757;28;20619;-62
2024/01/09 08:24:21;;;;;;;;;;;-1.50;97.40;;;;;;5023452;28;19913;-62
2024/01/09 08:26:48;;;;;;;;;;;-1.50;97.40;;;;;;5022883;28;19913;-62
2024/01/09 08:29:15;;;;;;;;;;;-1.50;97.40;;;;;;5038084;28;20500;-62
2024/01/09 08:31:44;;;;;;;;;;;-1.50;97.40;;;;;;5022556;28;19919;-62
2024/01/09 08:34:10;;;;;;;;;;;-1.50;97.30;;;;;;5023027;28;19947;-62
2024/01/09 08:36:35;;;;;;;;;;;-1.50;97.40;;;;;;5023346;28;19956;-62
2024/01/09 08:39:02;;;;;;;;;;;-1.50;97.40;;;;;;5022970;28;19951;-62
2024/01/09 08:41:27;;;;;;;;;;;-1.50;97.40;;;;;;5023739;28;19909;-62
2024/01/09 08:43:53;;;;;;;;;;;-1.40;97.30;;;;;;5005337;28;19923;-62
2024/01/09 08:46:18;;;;;;;;;;;-1.50;97.30;;;;;;5038652;28;20006;-62
2024/01/09 08:48:44;;;;;;;;;;;-1.50;97.30;;;;;;5023705;28;19938;-62
2024/01/09 08:51:10;;;;;;;;;;;-1.40;97.40;;;;;;5038390;28;20337;-62
2024/01/09 08:53:35;;;;;;;;;;;-1.50;97.30;;;;;;5023639;28;19913;-62
2024/01/09 08:56:01;;;;;;;;;;;-1.50;97.30;;;;;;5023359;28;20419;-62
2024/01/09 08:58:26;;;;;;;;;;;-1.40;97.30;;;;;;5023323;28;20468;-62
2024/01/09 09:00:52;;;;;;;;;;;-1.40;97.70;;;;;;5022601;28;19914;-62
2024/01/09 09:03:17;;;;;;;;;;;-1.40;97.30;;;;;;5023490;28;19913;-62
2024/01/09 09:05:43;;;;;;;;;;;-1.40;97.30;;;;;;5038176;28;20630;-62
2024/01/09 09:08:08;;;;;;;;;;;-1.40;97.20;;;;;;5022512;28;19944;-62
2024/01/09 09:10:34;;;;;;;;;;;-1.40;97.30;;;;;;5031519;28;20269;-62
2024/01/09 09:13:00;;;;;;;;;;;-1.50;97.40;;;;;;5037854;28;20463;-62
2024/01/09 09:15:25;;;;;;;;;;;-1.50;97.40;;;;;;5023273;28;19913;-62
2024/01/09 09:17:51;;;;;;;;;;;-1.50;97.40;;;;;;5022650;28;19913;-62
2024/01/09 09:20:17;;;;;;;;;;;-1.50;97.40;;;;;;5031479;28;19925;-62
2024/01/09 09:22:42;;;;;;;;;;;-1.50;97.70;;;;;;5023245;28;19996;-62
2024/01/09 09:25:08;;;;;;;;;;;-1.50;97.70;;;;;;5031190;28;20008;-62
2024/01/09 09:27:34;;;;;;;;;;;-1.50;97.70;;;;;;5023419;28;20004;-62
2024/01/09 09:30:00;;;;;;;;;;;-1.40;97.60;;;;;;5022962;28;20450;-62
2024/01/09 09:32:25;;;;;;;;;;;-1.40;97.60;;;;;;5023277;28;19913;-62
2024/01/09 09:34:51;;;;;;;;;;;-1.40;97.50;;;;;;5023076;28;20406;-62
2024/01/09 09:37:16;;;;;;;;;;;-1.50;97.50;;;;;;5027308;28;19917;-62
2024/01/09 09:39:42;;;;;;;;;;;-1.40;97.70;;;;;;5017441;28;19917;-62
2024/01/09 09:42:07;;;;;;;;;;;-1.40;97.60;;;;;;5022398;28;19920;-62
2024/01/09 09:44:35;;;;;;;;;;;-1.40;97.70;;;;;;5022827;28;20346;-62
2024/01/09 09:47:01;;;;;;;;;;;-1.40;97.60;;;;;;5022405;28;19920;-62
2024/01/09 09:49:27;;;;;;;;;;;-1.40;97.70;;;;;;5020027;28;19913;-62
2024/01/09 09:51:53;;;;;;;;;;;-1.30;97.70;;;;;;5027796;28;19958;-62
2024/01/09 09:54:19;;;;;;;;;;;-1.30;97.60;;;;;;5027296;28;19913;-62
2024/01/09 09:56:45;;;;;;;;;;;-1.30;97.60;;;;;;5036901;28;19923;-62
2024/01/09 09:59:11;;;;;;;;;;;-1.30;97.60;;;;;;5026441;28;20074;-62
2024/01/09 10:01:38;;;;;;;;;;;-1.30;97.90;;;;;;5026052;28;19981;-62
2024/01/09 10:04:12;;;;;;;;;;;-1.40;97.60;;;;;;5021600;28;19909;-62
2024/01/09 10:06:41;;;;;;;;;;;-1.30;97.80;;;;;;5022071;28;20373;-62
2024/01/09 10:09:10;;;;;;;;;;;-1.30;97.60;;;;;;5020358;28;20444;-62
2024/01/09 10:11:35;;;;;;;;;;;-1.30;97.80;;;;;;5021572;28;20587;-62
2024/01/09 10:14:01;;;;;;;;;;;-1.30;97.80;;;;;;5037347;28;19913;-62
2024/01/09 10:16:26;;;;;;;;;;;-1.30;97.70;;;;;;5004641;28;19920;-62
2024/01/09 10:18:55;;;;;;;;;;;-1.30;97.70;;;;;;5031144;28;19912;-62
2024/01/09 10:21:22;;;;;;;;;;;-1.30;97.80;;;;;;5029023;28;19917;-62
2024/01/09 10:23:48;;;;;;;;;;;-1.30;97.60;;;;;;5017458;28;19969;-62
2024/01/09 10:26:14;;;;;;;;;;;-1.30;97.90;;;;;;5026270;28;19921;-62
2024/01/09 10:28:39;;;;;;;;;;;-1.30;97.80;;;;;;5026338;28;19913;-62
2024/01/09 10:31:06;;;;;;;;;;;-1.20;97.80;;;;;;5037453;28;19913;-62
2024/01/09 10:33:31;;;;;;;;;;;-1.20;97.80;;;;;;5022359;28;19920;-62
2024/01/09 10:35:57;;;;;;;;;;;-1.20;97.70;;;;;;5021758;28;20364;-62
2024/01/09 10:38:22;;;;;;;;;;;-1.30;97.80;;;;;;5022087;28;19920;-62
2024/01/09 10:40:49;;;;;;;;;;;-1.20;97.90;;;;;;5030126;28;19917;-62
2024/01/09 10:43:16;;;;;;;;;;;-1.20;97.80;;;;;;5022125;28;19913;-62
2024/01/09 10:45:42;;;;;;;;;;;-1.20;97.90;;;;;;5022129;28;20270;-62
2024/01/09 10:48:08;;;;;;;;;;;-1.30;97.60;;;;;;5024658;28;20029;-62
2024/01/09 10:50:33;;;;;;;;;;;-1.20;97.80;;;;;;5036197;28;19909;-62
2024/01/09 10:52:59;;;;;;;;;;;-1.20;97.80;;;;;;5033193;28;20009;-62
2024/01/09 10:55:24;;;;;;;;;;;-1.20;97.80;;;;;;5036844;28;19909;-62
2024/01/09 10:57:50;;;;;;;;;;;-1.10;98.00;;;;;;5004406;28;19925;-62
2024/01/09 11:00:16;;;;;;;;;;;-1.10;97.80;;;;;;5022103;28;19925;-62
2024/01/09 11:02:42;;;;;;;;;;;-1.10;98.00;;;;;;5018385;28;19929;-62
2024/01/09 11:05:10;;;;;;;;;;;-1.00;97.90;;;;;;5020020;28;19917;-62
2024/01/09 11:07:35;;;;;;;;;;;-1.00;97.80;;;;;;5021740;28;20539;-62
2024/01/09 11:10:01;;;;;;;;;;;-1.00;97.80;;;;;;5008786;28;19924;-62
2024/01/09 11:12:55;;;;;;;;;;;-1.00;97.80;;;;;;5021371;28;19924;-62
2024/01/09 11:15:35;;;;;;;;;;;-1.00;97.90;;;;;;5016011;28;19921;-62
2024/01/09 11:18:03;;;;;;;;;;;-1.00;97.90;;;;;;5026975;28;20013;-62
2024/01/09 11:20:28;;;;;;;;;;;-1.00;97.90;;;;;;5030484;28;20007;-62
2024/01/09 11:22:54;;;;;;;;;;;-1.00;97.80;;;;;;5023970;28;20222;-62
2024/01/09 11:25:21;;;;;;;;;;;-1.00;97.90;;;;;;5024295;28;19925;-62
2024/01/09 11:27:49;;;;;;;;;;;-1.00;97.80;;;;;;5024011;28;19938;-62
2024/01/09 11:30:16;;;;;;;;;;;-1.00;97.90;;;;;;5031098;28;19921;-62
2024/01/09 11:32:41;;;;;;;;;;;-0.90;97.80;;;;;;5025093;28;19913;-62
2024/01/09 11:35:14;;;;;;;;;;;-0.90;97.80;;;;;;5005779;28;19925;-62
2024/01/09 11:37:40;;;;;;;;;;;-0.90;97.80;;;;;;5030756;28;19999;-62
2024/01/09 11:40:10;;;;;;;;;;;-0.90;97.80;;;;;;5032242;28;20016;-62
2024/01/09 11:42:40;;;;;;;;;;;-0.80;97.80;;;;;;5023827;28;19913;-62
2024/01/09 11:45:07;;;;;;;;;;;-0.80;97.80;;;;;;5023347;28;20365;-62
2024/01/09 11:47:37;;;;;;;;;;;-0.90;97.80;;;;;;5023548;28;19917;-62
2024/01/09 11:50:10;;;;;;;;;;;-0.90;97.60;;;;;;5017965;28;20010;-62
2024/01/09 11:52:35;;;;;;;;;;;-0.80;97.90;;;;;;5038336;28;19973;-62
2024/01/09 11:55:04;;;;;;;;;;;-0.80;97.90;;;;;;5043168;28;19920;-62
2024/01/09 11:57:30;;;;;;;;;;;-0.80;97.90;;;;;;5039812;28;19921;-62
2024/01/09 11:59:55;;;;;;;;;;;-0.80;97.80;;;;;;5023052;28;19913;-62
2024/01/09 12:02:21;;;;;;;;;;;-0.80;97.70;;;;;;5023513;28;20032;-62
2024/01/09 12:04:46;;;;;;;;;;;-0.80;97.90;;;;;;5031604;28;19944;-62
2024/01/09 12:07:12;;;;;;;;;;;-0.70;97.80;;;;;;5039663;28;19913;-62
2024/01/09 12:09:38;;;;;;;;;;;-0.70;97.80;;;;;;5031879;28;19913;-62
2024/01/09 12:12:07;;;;;;;;;;;-0.70;97.80;;;;;;5022955;28;20027;-61
2024/01/09 12:14:33;;;;;;;;;;;-0.80;97.70;;;;;;5024212;28;20385;-62
2024/01/09 12:16:58;;;;;;;;;;;-0.80;97.50;;;;;;5005539;28;20069;-62
2024/01/09 12:19:24;;;;;;;;;;;-0.70;97.80;;;;;;5023773;28;19919;-62
2024/01/09 12:21:49;;;;;;;;;;;-0.70;97.50;;;;;;5023623;28;19913;-62
2024/01/09 12:24:15;;;;;;;;;;;-0.80;97.30;;;;;;5036113;28;20539;-62
2024/01/09 12:26:41;;;;;;;;;;;-0.70;98.00;;;;;;5036630;28;19981;-62
2024/01/09 12:29:07;;;;;;;;;;;-0.80;97.40;;;;;;5023991;28;19971;-62
2024/01/09 12:31:36;;;;;;;;;;;-0.70;97.90;;;;;;5023519;28;19913;-62
2024/01/09 12:34:03;;;;;;;;;;;-0.70;98.00;;;;;;5023809;28;19999;-62
2024/01/09 12:36:29;;;;;;;;;;;-0.70;98.00;;;;;;5023971;28;19923;-62
2024/01/09 12:38:55;;;;;;;;;;;-0.60;98.00;;;;;;5023891;28;19913;-62
2024/01/09 12:41:23;;;;;;;;;;;-0.70;97.90;;;;;;5036990;28;20303;-62
2024/01/09 12:43:50;;;;;;;;;;;-0.70;97.80;;;;;;5027040;28;20020;-62
2024/01/09 12:46:16;;;;;;;;;;;-0.70;97.90;;;;;;5035106;28;19913;-62
2024/01/09 12:48:44;;;;;;;;;;;-0.60;97.80;;;;;;5028027;28;19917;-62
2024/01/09 12:51:10;;;;;;;;;;;-0.60;98.00;;;;;;5025597;28;19920;-62
2024/01/09 12:53:36;;;;;;;;;;;-0.60;98.00;;;;;;5031703;28;19921;-62
2024/01/09 12:56:02;;;;;;;;;;;-0.60;97.60;;;;;;5005172;28;20271;-62
2024/01/09 12:58:28;;;;;;;;;;;-0.60;97.90;;;;;;5022985;28;19921;-62
2024/01/09 13:00:53;;;;;;;;;;;-0.60;98.10;;;;;;5038781;28;19913;-62
2024/01/09 13:03:19;;;;;;;;;;;-0.60;98.10;;;;;;5023725;28;19913;-62
2024/01/09 13:05:44;;;;;;;;;;;-0.60;98.10;;;;;;5027444;28;19913;-62
2024/01/09 13:08:11;;;;;;;;;;;-0.60;98.00;;;;;;5035101;28;19919;-62
2024/01/09 13:10:36;;;;;;;;;;;-0.60;97.80;;;;;;5028982;28;19943;-62
2024/01/09 13:13:02;;;;;;;;;;;-0.50;98.20;;;;;;5023450;28;19944;-62
2024/01/09 13:15:27;;;;;;;;;;;-0.50;98.20;;;;;;5023547;28;19913;-62
2024/01/09 13:17:53;;;;;;;;;;;-0.50;98.10;;;;;;5023497;28;19917;-62
2024/01/09 13:20:18;;;;;;;;;;;-0.50;98.00;;;;;;5038760;28;19986;-62
2024/01/09 13:22:44;;;;;;;;;;;-0.50;97.90;;;;;;5023652;28;19958;-62
2024/01/09 13:25:10;;;;;;;;;;;-0.50;98.10;;;;;;5032010;28;19909;-62
2024/01/09 13:27:36;;;;;;;;;;;-0.50;98.00;;;;;;5023732;28;20000;-62
2024/01/09 13:30:01;;;;;;;;;;;-0.50;98.10;;;;;;5022890;28;19967;-62
2024/01/09 13:32:27;;;;;;;;;;;-0.50;98.00;;;;;;5031033;28;19941;-62
2024/01/09 13:34:53;;;;;;;;;;;-0.50;98.10;;;;;;5005201;28;19909;-62
2024/01/09 13:37:19;;;;;;;;;;;-0.50;97.70;;;;;;5031340;28;20657;-62
2024/01/09 13:39:46;;;;;;;;;;;-0.50;98.10;;;;;;5022053;28;20216;-62
2024/01/09 13:42:12;;;;;;;;;;;-0.50;97.90;;;;;;5033358;28;19923;-62
2024/01/09 13:44:37;;;;;;;;;;;-0.40;98.20;;;;;;5027899;28;19906;-62
2024/01/09 13:47:03;;;;;;;;;;;-0.40;98.10;;;;;;5011458;28;20015;-62
2024/01/09 13:49:29;;;;;;;;;;;-0.40;98.10;;;;;;5022372;28;20319;-62
2024/01/09 13:51:54;;;;;;;;;;;-0.50;97.70;;;;;;5014917;28;20000;-62
2024/01/09 13:54:21;;;;;;;;;;;-0.50;97.80;;;;;;5038047;27;20643;-62
2024/01/09 13:56:46;;;;;;;;;;;-0.50;98.00;;;;;;5005247;28;19924;-62
2024/01/09 13:59:12;;;;;;;;;;;-0.40;98.10;;;;;;5031039;28;19917;-62
2024/01/09 14:01:37;;;;;;;;;;;-0.50;98.10;;;;;;5023114;28;20427;-62
2024/01/09 14:04:05;;;;;;;;;;;-0.50;97.60;;;;;;5023070;28;19914;-62
2024/01/09 14:06:30;;;;;;;;;;;-0.40;98.20;;;;;;5022790;28;20017;-62
2024/01/09 14:08:57;;;;;;;;;;;-0.50;98.00;;;;;;5022946;28;19936;-62